createdAt,value
2022-08-11T00:01:23.485Z,2.70
2022-08-11T00:03:58.777Z,3.17
2022-08-11T00:06:36.853Z,7.80
2022-08-11T00:09:06.830Z,3.00
2022-08-11T00:11:58.718Z,3.45
2022-08-11T00:14:37.101Z,1.67
2022-08-11T00:17:15.871Z,3.60
2022-08-11T00:20:15.413Z,4.15
2022-08-11T00:22:46.820Z,1.77
2022-08-11T00:25:22.021Z,3.17
2022-08-11T00:27:49.286Z,2.13
2022-08-11T00:30:19.403Z,8.57
2022-08-11T00:32:55.635Z,1.42
2022-08-11T00:35:53.930Z,1.60
2022-08-11T00:38:15.212Z,6.90
2022-08-11T00:41:03.550Z,7.07
2022-08-11T00:43:50.718Z,2.00
2022-08-11T00:46:37.799Z,2.75
2022-08-11T00:49:04.138Z,4.47
2022-08-11T00:52:03.962Z,5.88
2022-08-11T00:54:38.658Z,1.70
2022-08-11T00:57:36.214Z,1.33
2022-08-11T01:00:15.886Z,2.42
2022-08-11T01:03:13.390Z,7.55
2022-08-11T01:05:51.612Z,2.20
2022-08-11T01:08:30.289Z,1.48
2022-08-11T01:11:24.689Z,1.30
2022-08-11T01:14:33.636Z,4.82
2022-08-11T01:17:26.053Z,4.85
2022-08-11T01:20:46.745Z,2.42
2022-08-11T01:23:26.763Z,6.38
2022-08-11T01:26:21.109Z,4.10
2022-08-11T01:29:06.359Z,5.03
2022-08-11T01:32:08.230Z,2.90
2022-08-11T01:35:19.341Z,4.25
2022-08-11T01:37:57.631Z,2.88
2022-08-11T01:40:50.025Z,11.27
2022-08-11T01:43:44.253Z,1.77
2022-08-11T01:46:29.810Z,4.07
2022-08-11T01:50:09.953Z,3.85
2022-08-11T01:52:33.367Z,1.33
2022-08-11T01:55:12.568Z,4.43
2022-08-11T01:57:50.803Z,6.22
2022-08-11T02:00:25.432Z,3.75
2022-08-11T02:03:10.074Z,2.35
2022-08-11T02:06:01.404Z,2.50
2022-08-11T02:08:51.926Z,5.68
2022-08-11T02:15:17.105Z,2.55
2022-08-11T02:18:12.077Z,2.13
2022-08-11T02:21:21.682Z,1.42
2022-08-11T02:24:06.030Z,4.78
2022-08-11T02:26:38.808Z,4.75
2022-08-11T02:29:38.210Z,2.55
2022-08-11T02:32:39.126Z,1.75
2022-08-11T02:35:25.875Z,7.13
2022-08-11T02:38:08.875Z,8.60
2022-08-11T02:41:01.411Z,2.28
2022-08-11T02:43:40.327Z,3.08
2022-08-11T02:46:48.408Z,1.48
2022-08-11T02:50:02.760Z,9.02
2022-08-11T02:52:49.357Z,1.88
2022-08-11T02:55:55.568Z,3.25
2022-08-11T02:58:26.907Z,2.95
2022-08-11T03:01:03.295Z,1.75
2022-08-11T03:03:34.504Z,4.57
2022-08-11T03:06:31.812Z,5.47
2022-08-11T03:09:27.147Z,2.53
2022-08-11T03:12:25.103Z,1.60
2022-08-11T03:15:31.540Z,1.58
2022-08-11T03:18:03.470Z,2.63
2022-08-11T03:20:33.110Z,1.88
2022-08-11T03:23:27.192Z,1.52
2022-08-11T03:26:02.563Z,1.50
2022-08-11T03:28:35.947Z,5.05
2022-08-11T03:31:28.000Z,6.20
2022-08-11T03:37:16.920Z,2.13
2022-08-11T03:40:07.759Z,2.15
2022-08-11T03:43:00.043Z,7.05
2022-08-11T03:46:12.210Z,2.00
2022-08-11T03:48:57.166Z,2.20
2022-08-11T03:51:44.782Z,2.03
2022-08-11T03:54:48.788Z,4.05
2022-08-11T03:57:27.229Z,6.03
2022-08-11T04:00:21.677Z,6.15
2022-08-11T04:03:00.357Z,3.17
2022-08-11T04:05:33.430Z,2.20
2022-08-11T04:08:02.010Z,3.55
2022-08-11T04:10:50.309Z,2.00
2022-08-11T04:13:38.958Z,4.85
2022-08-11T04:16:12.512Z,4.03
2022-08-11T04:19:00.998Z,2.38
2022-08-11T04:21:45.982Z,8.68
2022-08-11T04:24:38.065Z,3.35
2022-08-11T04:27:42.725Z,2.78
2022-08-11T04:30:21.635Z,4.60
2022-08-11T04:33:12.957Z,2.95
2022-08-11T04:35:48.681Z,4.70
2022-08-11T04:38:26.268Z,2.85
2022-08-11T04:41:15.081Z,2.00
2022-08-11T04:44:26.570Z,2.92
2022-08-11T04:47:08.026Z,2.00
2022-08-11T04:50:26.328Z,1.50
2022-08-11T04:53:36.882Z,5.80
2022-08-11T04:56:28.690Z,4.18
2022-08-11T04:59:27.674Z,5.03
2022-08-11T05:02:16.849Z,7.15
2022-08-11T05:05:21.767Z,1.77
2022-08-11T05:08:25.651Z,3.70
2022-08-11T05:11:23.209Z,1.95
2022-08-11T05:14:38.516Z,1.80
2022-08-11T05:17:43.376Z,2.10
2022-08-11T05:20:35.855Z,2.13
2022-08-11T05:23:26.567Z,2.00
2022-08-11T05:26:46.149Z,2.53
2022-08-11T05:29:22.167Z,3.65
2022-08-11T05:32:17.691Z,1.25
2022-08-11T05:34:54.923Z,2.47
2022-08-11T05:37:30.394Z,1.25
2022-08-11T05:40:32.768Z,1.20
2022-08-11T05:43:20.534Z,1.55
2022-08-11T05:46:23.774Z,3.03
2022-08-11T05:49:10.717Z,2.97
2022-08-11T05:52:05.881Z,6.68
2022-08-11T05:55:00.043Z,6.03
2022-08-11T05:57:48.589Z,4.05
2022-08-11T06:00:19.398Z,1.50
2022-08-11T06:02:55.703Z,1.63
2022-08-11T06:05:23.221Z,4.47
2022-08-11T06:07:54.580Z,2.17
2022-08-11T06:10:36.052Z,1.70
2022-08-11T06:13:04.955Z,2.10
2022-08-11T06:15:34.720Z,3.80
2022-08-11T06:18:03.061Z,1.52
2022-08-11T06:20:36.847Z,4.68
2022-08-11T06:23:05.892Z,3.13
2022-08-11T06:25:36.794Z,11.07
2022-08-11T06:28:08.375Z,2.65
2022-08-11T06:33:13.342Z,2.63
2022-08-11T06:35:48.849Z,6.82
2022-08-11T06:38:46.138Z,1.30
2022-08-11T06:41:30.307Z,1.70
2022-08-11T06:44:29.114Z,1.42
2022-08-11T06:47:03.772Z,4.35
2022-08-11T06:49:56.557Z,3.45
2022-08-11T06:52:35.089Z,3.88
2022-08-11T06:55:56.857Z,9.80
2022-08-11T06:58:49.759Z,2.42
2022-08-11T07:01:28.039Z,8.07
2022-08-11T07:04:06.492Z,7.20
2022-08-11T07:06:44.366Z,9.02
2022-08-11T07:09:57.797Z,4.60
2022-08-11T07:12:58.797Z,5.32
2022-08-11T07:16:11.643Z,1.30
2022-08-11T07:18:53.394Z,1.55
2022-08-11T07:22:03.032Z,4.22
2022-08-11T07:25:03.070Z,4.35
2022-08-11T07:28:03.467Z,4.22
2022-08-11T07:30:34.022Z,5.00
2022-08-11T07:33:03.070Z,5.05
2022-08-11T07:35:33.960Z,1.83
2022-08-11T07:38:11.867Z,2.47
2022-08-11T07:40:43.844Z,3.35
2022-08-11T07:43:14.264Z,6.40
2022-08-11T07:46:04.988Z,2.90
2022-08-11T07:48:52.209Z,6.18
2022-08-11T07:51:39.778Z,5.05
2022-08-11T07:54:16.696Z,5.43
2022-08-11T07:56:55.554Z,4.47
2022-08-11T08:00:04.189Z,6.18
2022-08-11T08:02:50.598Z,1.80
2022-08-11T08:05:37.400Z,2.25
2022-08-11T08:08:23.582Z,5.10
2022-08-11T08:11:08.682Z,5.18
2022-08-11T08:13:55.361Z,2.85
2022-08-11T08:16:40.894Z,3.17
2022-08-11T08:19:12.052Z,2.00
2022-08-11T08:21:39.211Z,4.00
2022-08-11T08:24:07.307Z,4.63
2022-08-11T08:26:52.847Z,1.70
2022-08-11T08:29:39.140Z,9.88
2022-08-11T08:32:09.619Z,2.13
2022-08-11T08:34:37.946Z,3.57
2022-08-11T08:37:16.155Z,4.80
2022-08-11T08:40:00.552Z,2.50
2022-08-11T08:42:32.714Z,2.92
2022-08-11T08:45:06.045Z,7.30
2022-08-11T08:47:43.017Z,1.80
2022-08-11T08:50:17.108Z,3.70
2022-08-11T08:52:50.620Z,7.70
2022-08-11T08:55:19.959Z,4.75
2022-08-11T08:57:49.572Z,11.77
2022-08-11T09:00:20.701Z,1.58
2022-08-11T09:02:55.283Z,1.80
2022-08-11T09:05:25.812Z,3.80
2022-08-11T09:07:58.936Z,12.10
2022-08-11T09:10:30.871Z,4.15
2022-08-11T09:12:59.867Z,2.72
2022-08-11T09:15:28.422Z,2.92
2022-08-11T09:18:03.553Z,2.33
2022-08-11T09:20:35.908Z,2.40
2022-08-11T09:26:33.792Z,3.47
2022-08-11T09:29:02.597Z,2.15
2022-08-11T09:31:40.380Z,2.35
2022-08-11T09:34:09.115Z,4.35
2022-08-11T09:36:54.632Z,4.72
2022-08-11T09:39:41.015Z,3.45
2022-08-11T09:42:11.435Z,4.50
2022-08-11T09:44:50.268Z,3.55
2022-08-11T09:47:21.235Z,7.18
2022-08-11T09:49:53.497Z,2.75
2022-08-11T09:52:22.461Z,1.63
2022-08-11T09:54:53.232Z,4.45
2022-08-11T09:57:40.662Z,1.80
2022-08-11T10:00:15.723Z,1.42
2022-08-11T10:02:53.918Z,2.05
2022-08-11T10:05:39.741Z,6.20
2022-08-11T10:08:12.557Z,1.25
2022-08-11T10:10:40.995Z,2.35
2022-08-11T10:14:30.315Z,4.55
2022-08-11T10:16:15.160Z,5.88
2022-08-11T10:18:51.553Z,6.15
2022-08-11T10:21:28.252Z,5.28
2022-08-11T10:24:17.306Z,3.10
2022-08-11T10:26:52.301Z,2.75
2022-08-11T10:29:44.421Z,2.97
2022-08-11T10:32:32.385Z,1.52
2022-08-11T10:35:02.649Z,1.50
2022-08-11T10:38:07.753Z,1.88
2022-08-11T10:40:26.320Z,1.15
2022-08-11T10:43:05.480Z,4.38
2022-08-11T10:45:53.988Z,1.45
2022-08-11T10:48:22.598Z,1.08
2022-08-11T10:51:10.788Z,7.78
2022-08-11T10:53:59.174Z,1.20
2022-08-11T10:56:51.436Z,2.35
2022-08-11T10:59:18.284Z,3.65
2022-08-11T11:01:45.745Z,3.65
2022-08-11T11:04:24.165Z,3.17
2022-08-11T11:07:05.312Z,1.23
2022-08-11T11:09:58.705Z,4.93
2022-08-11T11:12:43.534Z,1.33
2022-08-11T11:15:31.862Z,4.75
2022-08-11T11:18:04.786Z,3.10
2022-08-11T11:20:47.784Z,5.03
2022-08-11T11:23:25.392Z,2.67
2022-08-11T11:26:06.940Z,1.10
2022-08-11T11:28:47.030Z,1.80
2022-08-11T11:31:32.106Z,3.67
2022-08-11T11:34:37.052Z,3.17
2022-08-11T11:37:21.054Z,1.80
2022-08-11T11:39:51.275Z,8.25
2022-08-11T11:42:21.696Z,3.78
2022-08-11T11:44:55.301Z,3.47
2022-08-11T11:47:25.696Z,2.47
2022-08-11T11:49:53.071Z,0.82
2022-08-11T11:52:22.079Z,1.88
2022-08-11T11:54:53.533Z,2.35
2022-08-11T11:57:40.523Z,1.40
2022-08-11T12:00:32.951Z,1.92
2022-08-11T12:03:03.228Z,1.98
2022-08-11T12:05:33.492Z,4.95
2022-08-11T12:08:17.865Z,2.03
2022-08-11T12:10:46.012Z,3.72
2022-08-11T12:13:32.386Z,5.28
2022-08-11T12:16:32.872Z,1.40
2022-08-11T12:18:56.946Z,6.30
2022-08-11T12:21:24.980Z,1.55
2022-08-11T12:24:14.600Z,4.25
2022-08-11T12:27:16.277Z,1.13
2022-08-11T12:29:54.245Z,1.83
2022-08-11T12:32:25.534Z,1.95
2022-08-11T12:34:56.713Z,0.90
2022-08-11T12:37:32.178Z,1.00
2022-08-11T12:40:49.644Z,16.13
2022-08-11T12:43:38.751Z,1.67
2022-08-11T12:46:23.529Z,2.42
2022-08-11T12:49:16.886Z,1.92
2022-08-11T12:52:12.484Z,5.72
2022-08-11T12:54:51.800Z,2.92
2022-08-11T12:57:44.436Z,2.17
2022-08-11T13:00:30.215Z,1.30
2022-08-11T13:03:19.390Z,5.05
2022-08-11T13:05:51.130Z,2.17
2022-08-11T13:08:17.960Z,5.00
2022-08-11T13:11:04.764Z,1.10
2022-08-11T13:13:53.917Z,1.92
2022-08-11T13:16:20.901Z,6.72
2022-08-11T13:18:51.473Z,8.68
2022-08-11T13:21:21.419Z,1.65
2022-08-11T13:24:01.985Z,1.98
2022-08-11T13:26:48.788Z,4.50
2022-08-11T13:29:27.811Z,3.25
2022-08-11T13:31:59.670Z,1.08
2022-08-11T13:34:35.198Z,0.82
2022-08-11T13:37:04.974Z,7.22
2022-08-11T13:39:35.758Z,0.95
2022-08-11T13:42:04.399Z,1.73
2022-08-11T13:44:34.305Z,2.97
2022-08-11T13:47:07.569Z,4.72
2022-08-11T13:49:39.566Z,0.98
2022-08-11T13:52:12.795Z,1.38
2022-08-11T13:54:41.182Z,1.23
2022-08-11T13:58:05.963Z,5.32
2022-08-11T14:00:13.366Z,2.67
2022-08-11T14:02:53.965Z,5.22
2022-08-11T14:05:28.138Z,1.90
2022-08-11T14:08:03.549Z,1.25
2022-08-11T14:10:33.073Z,1.13
2022-08-11T14:13:27.375Z,2.50
2022-08-11T14:15:57.280Z,5.75
2022-08-11T14:18:28.777Z,6.95
2022-08-11T14:21:18.200Z,1.13
2022-08-11T14:23:47.695Z,1.05
2022-08-11T14:26:36.524Z,1.65
2022-08-11T14:29:08.215Z,1.10
2022-08-11T14:31:38.390Z,4.40
2022-08-11T14:34:07.433Z,1.10
2022-08-11T14:36:38.927Z,1.35
2022-08-11T14:39:18.554Z,2.05
2022-08-11T14:42:11.192Z,8.13
2022-08-11T14:45:07.404Z,1.00
2022-08-11T14:47:37.157Z,1.52
2022-08-11T14:50:11.205Z,1.13
2022-08-11T14:53:00.441Z,2.03
2022-08-11T14:55:50.639Z,1.48
2022-08-11T14:58:20.363Z,2.67
2022-08-11T15:00:51.067Z,2.17
2022-08-11T15:03:17.951Z,1.10
2022-08-11T15:05:58.325Z,5.43
2022-08-11T15:08:47.488Z,4.35
2022-08-11T15:11:35.012Z,1.10
2022-08-11T15:14:03.495Z,1.35
2022-08-11T15:16:49.469Z,1.92
2022-08-11T15:19:19.540Z,10.27
2022-08-11T15:22:04.654Z,2.97
2022-08-11T15:24:33.538Z,2.75
2022-08-11T15:27:22.857Z,2.90
2022-08-11T15:30:17.548Z,3.53
2022-08-11T15:33:28.291Z,2.80
2022-08-11T15:36:15.393Z,4.75
2022-08-11T15:38:47.669Z,1.55
2022-08-11T15:41:36.317Z,2.33
2022-08-11T15:44:51.306Z,2.25
2022-08-11T15:47:20.426Z,4.28
2022-08-11T15:50:13.006Z,9.52
2022-08-11T15:52:56.148Z,1.38
2022-08-11T15:55:25.022Z,2.03
2022-08-11T15:58:17.898Z,2.03
2022-08-11T16:01:09.113Z,1.52
2022-08-11T16:04:07.223Z,0.75
2022-08-11T16:06:38.970Z,0.93
2022-08-11T16:09:18.543Z,1.88
2022-08-11T16:11:46.915Z,1.13
2022-08-11T16:14:35.886Z,1.20
2022-08-11T16:17:04.443Z,2.28
2022-08-11T16:19:35.097Z,2.05
2022-08-11T16:22:07.181Z,3.15
2022-08-11T16:26:30.491Z,4.75
2022-08-11T16:27:25.383Z,4.00
2022-08-11T16:29:53.039Z,5.65
2022-08-11T16:32:23.187Z,3.03
2022-08-11T16:35:13.922Z,15.60
2022-08-11T16:38:00.545Z,1.63
2022-08-11T16:40:29.597Z,5.72
2022-08-11T16:43:18.455Z,1.45
2022-08-11T16:46:04.754Z,1.23
2022-08-11T16:48:37.213Z,0.80
2022-08-11T16:51:10.759Z,1.38
2022-08-11T16:53:59.971Z,1.90
2022-08-11T16:56:36.179Z,2.25
2022-08-11T16:59:14.762Z,4.28
2022-08-11T17:01:53.703Z,1.90
2022-08-11T17:04:45.099Z,1.58
2022-08-11T17:07:41.833Z,7.43
2022-08-11T17:10:53.306Z,2.67
2022-08-11T17:13:29.526Z,6.55
2022-08-11T17:16:07.190Z,12.32
2022-08-11T17:18:41.068Z,1.25
2022-08-11T17:21:37.282Z,1.40
2022-08-11T17:24:09.477Z,4.40
2022-08-11T17:26:58.060Z,1.85
2022-08-11T17:29:33.215Z,6.38
2022-08-11T17:32:21.870Z,0.77
2022-08-11T17:35:16.760Z,2.42
2022-08-11T17:37:44.350Z,6.25
2022-08-11T17:40:21.901Z,4.03
2022-08-11T17:43:07.474Z,3.90
2022-08-11T17:45:52.919Z,2.72
2022-08-11T17:48:25.729Z,1.48
2022-08-11T17:50:55.517Z,0.93
2022-08-11T17:54:10.045Z,1.23
2022-08-11T17:56:52.430Z,1.35
2022-08-11T17:59:38.454Z,3.90
2022-08-11T18:02:34.513Z,3.38
2022-08-11T18:05:12.835Z,1.20
2022-08-11T18:08:02.269Z,3.25
2022-08-11T18:10:53.718Z,1.45
2022-08-11T18:16:28.605Z,1.48
2022-08-11T18:19:13.960Z,1.80
2022-08-11T18:22:14.378Z,1.75
2022-08-11T18:25:06.353Z,7.05
2022-08-11T18:27:54.747Z,1.92
2022-08-11T18:30:41.773Z,1.00
2022-08-11T18:36:39.908Z,1.13
2022-08-11T18:39:28.997Z,1.92
2022-08-11T18:42:19.560Z,1.65
2022-08-11T18:45:18.574Z,2.15
2022-08-11T18:48:14.530Z,1.17
2022-08-11T18:51:31.779Z,5.03
2022-08-11T18:54:27.799Z,2.75
2022-08-11T18:57:19.772Z,2.22
2022-08-11T19:00:11.658Z,2.63
2022-08-11T19:02:58.397Z,2.03
2022-08-11T19:06:06.003Z,9.32
2022-08-11T19:08:58.470Z,2.05
2022-08-11T19:11:46.043Z,1.48
2022-08-11T19:14:32.161Z,1.42
2022-08-11T19:17:43.675Z,4.30
2022-08-11T19:20:36.473Z,3.80
2022-08-11T19:23:23.625Z,2.03
2022-08-11T19:26:08.876Z,1.55
2022-08-11T19:28:57.284Z,7.18
2022-08-11T19:31:44.957Z,2.17
2022-08-11T19:34:34.454Z,4.72
2022-08-11T19:37:24.365Z,3.45
2022-08-11T19:40:20.358Z,3.28
2022-08-11T19:43:18.670Z,2.30
2022-08-11T19:46:11.817Z,5.15
2022-08-11T19:48:58.552Z,5.25
2022-08-11T19:51:44.205Z,2.65
2022-08-11T19:54:29.604Z,3.08
2022-08-11T19:57:15.038Z,4.10
2022-08-11T20:00:00.853Z,4.18
2022-08-11T20:02:46.969Z,5.32
2022-08-11T20:05:32.386Z,2.50
2022-08-11T20:08:18.601Z,18.52
2022-08-11T20:11:05.973Z,30.45
2022-08-11T20:13:52.353Z,20.17
2022-08-11T20:16:49.677Z,9.50
2022-08-11T20:19:54.784Z,14.60
2022-08-11T20:22:49.665Z,4.22
2022-08-11T20:25:36.830Z,4.03
2022-08-11T20:28:24.145Z,3.85
2022-08-11T20:31:10.747Z,3.78
2022-08-11T20:33:57.966Z,3.55
2022-08-11T20:36:47.587Z,3.75
2022-08-11T20:39:43.252Z,2.42
2022-08-11T20:42:31.511Z,2.53
2022-08-11T20:45:23.811Z,5.28
2022-08-11T20:48:14.922Z,5.70
2022-08-11T20:51:07.315Z,5.75
2022-08-11T20:53:57.302Z,10.40
2022-08-11T20:56:45.459Z,5.28
2022-08-11T20:59:33.259Z,5.63
2022-08-11T21:02:35.457Z,8.45
2022-08-11T21:06:08.060Z,5.88
2022-08-11T21:08:26.770Z,2.70
2022-08-11T21:11:28.054Z,9.68
2022-08-11T21:14:18.234Z,36.25
2022-08-11T21:17:27.647Z,52.28
2022-08-11T21:20:20.426Z,58.97
2022-08-11T21:23:10.282Z,57.83
2022-08-11T21:26:06.303Z,52.80
2022-08-11T21:28:56.043Z,55.35
2022-08-11T21:31:43.872Z,38.63
2022-08-11T21:34:37.917Z,43.15
2022-08-11T21:37:25.009Z,34.35
2022-08-11T21:40:17.126Z,31.30
2022-08-11T21:43:08.826Z,24.35
2022-08-11T21:45:55.637Z,25.33
2022-08-11T21:48:43.907Z,16.42
2022-08-11T21:51:29.080Z,19.70
2022-08-11T21:54:16.171Z,15.40
2022-08-11T21:57:02.434Z,16.67
2022-08-11T22:00:09.004Z,13.52
2022-08-11T22:02:55.788Z,16.52
2022-08-11T22:05:42.397Z,15.45
2022-08-11T22:08:28.444Z,14.95
2022-08-11T22:11:14.760Z,17.50
2022-08-11T22:14:00.736Z,22.13
2022-08-11T22:16:51.807Z,27.67
2022-08-11T22:19:37.952Z,16.58
2022-08-11T22:22:26.291Z,19.10
2022-08-11T22:25:18.445Z,17.50
2022-08-11T22:28:04.066Z,13.55
2022-08-11T22:30:51.675Z,19.05
2022-08-11T22:33:39.642Z,23.83
2022-08-11T22:36:38.460Z,13.85
2022-08-11T22:39:26.076Z,13.32
2022-08-11T22:42:11.514Z,11.10
2022-08-11T22:44:56.728Z,9.43
2022-08-11T22:47:43.169Z,9.55
2022-08-11T22:50:28.774Z,15.10
2022-08-11T22:53:15.835Z,5.65
2022-08-11T22:56:01.305Z,3.25
2022-08-11T22:58:47.412Z,3.00
2022-08-11T23:01:35.026Z,3.88
2022-08-11T23:04:24.794Z,5.65
2022-08-11T23:07:11.490Z,2.30
2022-08-11T23:09:57.954Z,4.70
2022-08-11T23:12:43.176Z,9.95
2022-08-11T23:15:33.184Z,3.55
2022-08-11T23:18:20.227Z,3.83
2022-08-11T23:21:06.711Z,4.63
2022-08-11T23:23:53.081Z,1.95
2022-08-11T23:26:39.216Z,1.73
2022-08-11T23:29:28.870Z,3.95
2022-08-11T23:32:14.987Z,1.60
2022-08-11T23:35:40.462Z,2.53
2022-08-11T23:38:10.749Z,2.88
2022-08-11T23:40:58.608Z,5.45
2022-08-11T23:43:43.740Z,4.43
2022-08-11T23:46:29.391Z,13.05
2022-08-11T23:49:20.625Z,7.70
2022-08-11T23:52:06.946Z,6.90
2022-08-11T23:54:58.563Z,4.40
2022-08-11T23:57:49.267Z,6.15
